GCRR/ACE METAR and TAF weather

Enter ICAO airport designator
Station Type Date Time Source
GCRR METAR 2018/10/22 17:00 UTC NOAA

GCRR 221700Z 17015KT 9999 FEW015 BKN035 23/20 Q1017


Station Type Date Time Source
GCRR Decoded METAR 2018/10/22 17:00 UTC NOAA

Lanzarote / Aeropuerto, Spain (GCRR) 28-57N 013-36W 21M
Oct 22, 2018 - 01:00 PM EDT / 2018.10.22 1700 UTC
Wind: from the S (170 degrees) at 17 MPH (15 KT):0
Visibility: greater than 7 mile(s):0
Sky conditions: mostly cloudy
Temperature: 73 F (23 C)
Dew Point: 68 F (20 C)
Relative Humidity: 83%
Pressure (altimeter): 30.03 in. Hg (1017 hPa)
ob: GCRR 221700Z 17015KT 9999 FEW015 BKN035 23/20 Q1017
cycle: 17

Station Type Date Time Source
GCRR TAF 2018/10/22 15:27 UTC NOAA

TAF GCRR 221400Z 2215/2315 17010KT 9999 SCT025 TX25/2314Z TN18/2305Z PROB30
TEMPO 2221/2315 RA


Example: see airport list